sensor_id;sensor_type;location;lat;lon;timestamp;pressure;altitude;pressure_sealevel;temperature;humidity
74435;BME280;62867;52.038;29.256;2022-11-20T00:04:02;1025.8;;;0.6;64.7
74435;BME280;62867;52.038;29.256;2022-11-20T00:09:02;1025.9;;;0.6;64.8
74435;BME280;62867;52.038;29.256;2022-11-20T00:14:12;1026;;;0.7;64.4
74435;BME280;62867;52.038;29.256;2022-11-20T00:19:14;1026;;;0.7;64.4
74435;BME280;62867;52.038;29.256;2022-11-20T00:24:22;1026.1;;;0.7;64.8
74435;BME280;62867;52.038;29.256;2022-11-20T00:29:14;1026.1;;;0.7;65.1
74435;BME280;62867;52.038;29.256;2022-11-20T00:34:02;1026.1;;;0.7;64.8
74435;BME280;62867;52.038;29.256;2022-11-20T00:39:14;1026.1;;;0.7;64.8
74435;BME280;62867;52.038;29.256;2022-11-20T00:44:02;1026.1;;;0.7;64.7
74435;BME280;62867;52.038;29.256;2022-11-20T00:49:02;1026.1;;;0.6;64.3
74435;BME280;62867;52.038;29.256;2022-11-20T00:54:02;1026.1;;;0.6;64.2
74435;BME280;62867;52.038;29.256;2022-11-20T00:59:24;1026.1;;;0.5;64
74435;BME280;62867;52.038;29.256;2022-11-20T01:04:02;1026.1;;;0.5;63.8
74435;BME280;62867;52.038;29.256;2022-11-20T01:09:13;1026;;;0.5;64
74435;BME280;62867;52.038;29.256;2022-11-20T01:14:04;1026.1;;;0.5;64.1
74435;BME280;62867;52.038;29.256;2022-11-20T01:19:26;1026.1;;;0.5;64.5
74435;BME280;62867;52.038;29.256;2022-11-20T01:24:03;1026.2;;;0.5;64.6
74435;BME280;62867;52.038;29.256;2022-11-20T01:29:28;1026.1;;;0.5;64.4
74435;BME280;62867;52.038;29.256;2022-11-20T01:34:07;1026.1;;;0.6;65
74435;BME280;62867;52.038;29.256;2022-11-20T01:39:07;1026.2;;;0.6;64.8
74435;BME280;62867;52.038;29.256;2022-11-20T01:44:06;1026.2;;;0.5;64.4
74435;BME280;62867;52.038;29.256;2022-11-20T01:49:17;1026.2;;;0.5;64.5
74435;BME280;62867;52.038;29.256;2022-11-20T01:54:29;1026.3;;;0.5;64.9
74435;BME280;62867;52.038;29.256;2022-11-20T01:59:07;1026.4;;;0.4;64.5
74435;BME280;62867;52.038;29.256;2022-11-20T02:04:06;1026.4;;;0.4;64.8
74435;BME280;62867;52.038;29.256;2022-11-20T02:09:06;1026.4;;;0.5;64.8
74435;BME280;62867;52.038;29.256;2022-11-20T02:14:06;1026.5;;;0.5;65
74435;BME280;62867;52.038;29.256;2022-11-20T02:19:08;1026.5;;;0.5;64.7
74435;BME280;62867;52.038;29.256;2022-11-20T02:24:07;1026.6;;;0.5;64.3
74435;BME280;62867;52.038;29.256;2022-11-20T02:29:15;1026.7;;;0.6;64.5
74435;BME280;62867;52.038;29.256;2022-11-20T02:34:54;1026.7;;;0.6;64.7
74435;BME280;62867;52.038;29.256;2022-11-20T02:39:06;1026.7;;;0.6;64.7
74435;BME280;62867;52.038;29.256;2022-11-20T02:44:06;1026.7;;;0.5;64.6
74435;BME280;62867;52.038;29.256;2022-11-20T02:49:06;1026.7;;;0.5;64.5
74435;BME280;62867;52.038;29.256;2022-11-20T02:54:06;1026.7;;;0.5;64.8
74435;BME280;62867;52.038;29.256;2022-11-20T02:59:26;1026.9;;;0.5;64.6
74435;BME280;62867;52.038;29.256;2022-11-20T03:04:26;1027.1;;;0.5;64.5
74435;BME280;62867;52.038;29.256;2022-11-20T03:09:06;1027.1;;;0.5;65
74435;BME280;62867;52.038;29.256;2022-11-20T03:14:18;1027.1;;;0.5;63.9
74435;BME280;62867;52.038;29.256;2022-11-20T03:19:06;1027.2;;;0.5;64.5
74435;BME280;62867;52.038;29.256;2022-11-20T03:24:30;1027.2;;;0.5;64.9
74435;BME280;62867;52.038;29.256;2022-11-20T03:29:06;1027.3;;;0.5;64.7
74435;BME280;62867;52.038;29.256;2022-11-20T03:34:06;1027.2;;;0.5;64.6
74435;BME280;62867;52.038;29.256;2022-11-20T03:39:06;1027.2;;;0.5;64.4
74435;BME280;62867;52.038;29.256;2022-11-20T03:44:16;1027.4;;;0.5;63.9
74435;BME280;62867;52.038;29.256;2022-11-20T03:49:06;1027.3;;;0.5;64.4
74435;BME280;62867;52.038;29.256;2022-11-20T03:54:07;1027.3;;;0.5;64.5
74435;BME280;62867;52.038;29.256;2022-11-20T03:59:06;1027.3;;;0.4;64.6
74435;BME280;62867;52.038;29.256;2022-11-20T04:04:06;1027.2;;;0.4;65.2
74435;BME280;62867;52.038;29.256;2022-11-20T04:09:16;1027.2;;;0.4;64.8
74435;BME280;62867;52.038;29.256;2022-11-20T04:14:18;1027.2;;;0.4;65.3
74435;BME280;62867;52.038;29.256;2022-11-20T04:19:08;1027.2;;;0.4;65
74435;BME280;62867;52.038;29.256;2022-11-20T04:24:12;1027.1;;;0.4;64.7
74435;BME280;62867;52.038;29.256;2022-11-20T04:29:28;1027;;;0.4;65.1
74435;BME280;62867;52.038;29.256;2022-11-20T04:34:40;1027;;;0.4;65.2
74435;BME280;62867;52.038;29.256;2022-11-20T04:39:28;1027;;;0.4;64.5
74435;BME280;62867;52.038;29.256;2022-11-20T04:44:06;1027;;;0.4;64.1
74435;BME280;62867;52.038;29.256;2022-11-20T04:49:14;1026.9;;;0.4;64
74435;BME280;62867;52.038;29.256;2022-11-20T04:54:24;1027;;;0.3;64
74435;BME280;62867;52.038;29.256;2022-11-20T04:59:30;1027;;;0.3;63.8
74435;BME280;62867;52.038;29.256;2022-11-20T05:04:06;1026.9;;;0.3;64
74435;BME280;62867;52.038;29.256;2022-11-20T05:09:06;1026.9;;;0.3;64.4
74435;BME280;62867;52.038;29.256;2022-11-20T05:14:14;1026.8;;;0.3;64.3
74435;BME280;62867;52.038;29.256;2022-11-20T05:19:44;1026.8;;;0.3;64.5
74435;BME280;62867;52.038;29.256;2022-11-20T05:24:06;1026.8;;;0.3;64.1
74435;BME280;62867;52.038;29.256;2022-11-20T05:29:18;1026.9;;;0.3;63.9
74435;BME280;62867;52.038;29.256;2022-11-20T05:34:16;1026.9;;;0.3;64.3
74435;BME280;62867;52.038;29.256;2022-11-20T05:39:14;1026.8;;;0.3;64.3
74435;BME280;62867;52.038;29.256;2022-11-20T05:44:06;1026.8;;;0.3;64.9
74435;BME280;62867;52.038;29.256;2022-11-20T05:49:16;1026.8;;;0.3;64.2
74435;BME280;62867;52.038;29.256;2022-11-20T05:54:38;1026.9;;;0.3;63.9
74435;BME280;62867;52.038;29.256;2022-11-20T05:59:14;1026.9;;;0.3;64.3
74435;BME280;62867;52.038;29.256;2022-11-20T06:04:14;1026.9;;;0.4;64.4
74435;BME280;62867;52.038;29.256;2022-11-20T06:09:06;1026.8;;;0.4;64.6
74435;BME280;62867;52.038;29.256;2022-11-20T06:14:06;1026.9;;;0.5;64.5
74435;BME280;62867;52.038;29.256;2022-11-20T06:19:18;1027;;;0.6;65.1
74435;BME280;62867;52.038;29.256;2022-11-20T06:24:06;1027;;;0.7;64.5
74435;BME280;62867;52.038;29.256;2022-11-20T06:29:06;1027;;;0.8;64.1
74435;BME280;62867;52.038;29.256;2022-11-20T06:34:30;1027.1;;;0.9;63.7
74435;BME280;62867;52.038;29.256;2022-11-20T06:39:06;1027.1;;;0.9;63.9
74435;BME280;62867;52.038;29.256;2022-11-20T06:44:16;1027;;;0.9;63.8
74435;BME280;62867;52.038;29.256;2022-11-20T06:49:32;1027;;;0.9;62.9
74435;BME280;62867;52.038;29.256;2022-11-20T06:54:06;1027.1;;;0.9;62.6
74435;BME280;62867;52.038;29.256;2022-11-20T06:59:16;1027.1;;;0.9;63.1
74435;BME280;62867;52.038;29.256;2022-11-20T07:04:42;1027.2;;;1;62.6
74435;BME280;62867;52.038;29.256;2022-11-20T07:09:06;1027.3;;;1;62.7
74435;BME280;62867;52.038;29.256;2022-11-20T07:14:26;1027.3;;;1;62.1
74435;BME280;62867;52.038;29.256;2022-11-20T07:19:28;1027.1;;;1;63.1
74435;BME280;62867;52.038;29.256;2022-11-20T07:24:06;1027;;;1.1;63.6
74435;BME280;62867;52.038;29.256;2022-11-20T07:29:18;1026.9;;;1.1;63.2
74435;BME280;62867;52.038;29.256;2022-11-20T07:34:06;1026.8;;;1.1;62.8
74435;BME280;62867;52.038;29.256;2022-11-20T07:39:06;1026.7;;;1.1;62.9
74435;BME280;62867;52.038;29.256;2022-11-20T07:44:16;1026.8;;;1.1;62.2
74435;BME280;62867;52.038;29.256;2022-11-20T07:49:06;1026.7;;;1;61.4
74435;BME280;62867;52.038;29.256;2022-11-20T07:54:06;1026.7;;;0.8;61.8
74435;BME280;62867;52.038;29.256;2022-11-20T07:59:26;1026.6;;;0.9;62.3
74435;BME280;62867;52.038;29.256;2022-11-20T08:04:06;1026.7;;;1;61.7
74435;BME280;62867;52.038;29.256;2022-11-20T08:09:06;1026.7;;;1.1;60.8
74435;BME280;62867;52.038;29.256;2022-11-20T08:14:06;1026.9;;;1.2;61.5
74435;BME280;62867;52.038;29.256;2022-11-20T08:19:06;1026.9;;;1.3;61.4
74435;BME280;62867;52.038;29.256;2022-11-20T08:24:18;1026.8;;;1.5;61.1
74435;BME280;62867;52.038;29.256;2022-11-20T08:29:16;1026.7;;;1.6;61.1
74435;BME280;62867;52.038;29.256;2022-11-20T08:34:16;1026.6;;;1.7;60.9
74435;BME280;62867;52.038;29.256;2022-11-20T08:39:16;1026.6;;;1.7;60.5
74435;BME280;62867;52.038;29.256;2022-11-20T08:44:07;1026.7;;;1.7;60
74435;BME280;62867;52.038;29.256;2022-11-20T08:49:28;1026.7;;;1.7;60
74435;BME280;62867;52.038;29.256;2022-11-20T08:54:28;1026.6;;;1.7;59.2
74435;BME280;62867;52.038;29.256;2022-11-20T08:59:16;1026.6;;;1.7;59.7
74435;BME280;62867;52.038;29.256;2022-11-20T09:04:16;1026.6;;;1.8;59.8
74435;BME280;62867;52.038;29.256;2022-11-20T09:09:12;1026.7;;;1.8;59.3
74435;BME280;62867;52.038;29.256;2022-11-20T09:14:06;1026.5;;;2;59.2
74435;BME280;62867;52.038;29.256;2022-11-20T09:19:16;1026.5;;;2.1;59.6
74435;BME280;62867;52.038;29.256;2022-11-20T09:24:06;1026.5;;;2.2;59.4
74435;BME280;62867;52.038;29.256;2022-11-20T09:29:26;1026.3;;;2.3;58.8
74435;BME280;62867;52.038;29.256;2022-11-20T09:34:14;1026.4;;;2.3;59.3
74435;BME280;62867;52.038;29.256;2022-11-20T09:39:06;1026.4;;;2.3;59.1
74435;BME280;62867;52.038;29.256;2022-11-20T09:44:07;1026.4;;;2.3;58.6
74435;BME280;62867;52.038;29.256;2022-11-20T09:49:13;1026.4;;;2.2;58.2
74435;BME280;62867;52.038;29.256;2022-11-20T09:54:15;1026.5;;;2.1;58.7
74435;BME280;62867;52.038;29.256;2022-11-20T09:59:07;1026.3;;;2.1;58.5
74435;BME280;62867;52.038;29.256;2022-11-20T10:04:09;1026.3;;;2.1;57.8
74435;BME280;62867;52.038;29.256;2022-11-20T10:09:13;1026.2;;;2;58.2
74435;BME280;62867;52.038;29.256;2022-11-20T10:14:20;1026.1;;;2.1;58.6
74435;BME280;62867;52.038;29.256;2022-11-20T10:19:20;1026;;;2.2;59.2
74435;BME280;62867;52.038;29.256;2022-11-20T10:24:23;1026.1;;;2.2;58.7
74435;BME280;62867;52.038;29.256;2022-11-20T10:29:17;1026.1;;;2;59
74435;BME280;62867;52.038;29.256;2022-11-20T10:34:18;1026.1;;;2;59.4
74435;BME280;62867;52.038;29.256;2022-11-20T10:39:17;1026;;;2;59.6
74435;BME280;62867;52.038;29.256;2022-11-20T10:44:09;1026;;;2;60.2
74435;BME280;62867;52.038;29.256;2022-11-20T10:49:26;1026;;;2;59.6
74435;BME280;62867;52.038;29.256;2022-11-20T10:54:10;1026;;;2;59.4
74435;BME280;62867;52.038;29.256;2022-11-20T10:59:38;1025.9;;;1.9;59.4
74435;BME280;62867;52.038;29.256;2022-11-20T11:04:07;1025.9;;;1.8;59.9
74435;BME280;62867;52.038;29.256;2022-11-20T11:09:09;1025.9;;;1.8;60.3
74435;BME280;62867;52.038;29.256;2022-11-20T11:14:16;1026;;;1.8;60.4
74435;BME280;62867;52.038;29.256;2022-11-20T11:19:16;1026;;;1.8;60
74435;BME280;62867;52.038;29.256;2022-11-20T11:24:25;1025.9;;;1.8;60
74435;BME280;62867;52.038;29.256;2022-11-20T11:29:15;1025.8;;;1.8;59.9
74435;BME280;62867;52.038;29.256;2022-11-20T11:34:16;1025.7;;;1.8;59.6
74435;BME280;62867;52.038;29.256;2022-11-20T11:39:17;1025.8;;;1.7;59.3
74435;BME280;62867;52.038;29.256;2022-11-20T11:44:17;1025.6;;;1.6;59.8
74435;BME280;62867;52.038;29.256;2022-11-20T11:49:13;1025.5;;;1.6;60.3
74435;BME280;62867;52.038;29.256;2022-11-20T11:54:10;1025.7;;;1.7;60.3
74435;BME280;62867;52.038;29.256;2022-11-20T11:59:09;1025.9;;;1.7;60.5
74435;BME280;62867;52.038;29.256;2022-11-20T12:04:09;1025.9;;;1.6;60.4
74435;BME280;62867;52.038;29.256;2022-11-20T12:09:32;1025.7;;;1.6;61.4
74435;BME280;62867;52.038;29.256;2022-11-20T12:14:30;1025.7;;;1.6;60.7
74435;BME280;62867;52.038;29.256;2022-11-20T12:19:08;1025.7;;;1.6;61.4
74435;BME280;62867;52.038;29.256;2022-11-20T12:24:43;1025.4;;;1.6;61.4
74435;BME280;62867;52.038;29.256;2022-11-20T12:29:18;1025.3;;;1.6;61.3
74435;BME280;62867;52.038;29.256;2022-11-20T12:34:19;1025.3;;;1.6;61.9
74435;BME280;62867;52.038;29.256;2022-11-20T12:39:19;1025.2;;;1.6;61.9
74435;BME280;62867;52.038;29.256;2022-11-20T12:44:32;1025.2;;;1.6;62.1
74435;BME280;62867;52.038;29.256;2022-11-20T12:49:09;1025.1;;;1.5;62.6
74435;BME280;62867;52.038;29.256;2022-11-20T12:54:36;1024.8;;;1.5;62.8
74435;BME280;62867;52.038;29.256;2022-11-20T12:59:12;1024.8;;;1.4;62.4
74435;BME280;62867;52.038;29.256;2022-11-20T13:04:07;1025;;;1.2;63.5
74435;BME280;62867;52.038;29.256;2022-11-20T13:09:06;1025;;;1.1;64.1
74435;BME280;62867;52.038;29.256;2022-11-20T13:14:10;1025;;;1.1;65.2
74435;BME280;62867;52.038;29.256;2022-11-20T13:19:08;1025;;;1.1;65.2
74435;BME280;62867;52.038;29.256;2022-11-20T13:24:07;1025;;;1.1;65.5
74435;BME280;62867;52.038;29.256;2022-11-20T13:29:08;1024.9;;;1.1;65.7
74435;BME280;62867;52.038;29.256;2022-11-20T13:34:06;1025;;;1.1;65.3
74435;BME280;62867;52.038;29.256;2022-11-20T13:39:38;1024.9;;;1.1;65.5
74435;BME280;62867;52.038;29.256;2022-11-20T13:44:29;1024.7;;;1.1;65.6
74435;BME280;62867;52.038;29.256;2022-11-20T13:49:17;1024.6;;;1;66.1
74435;BME280;62867;52.038;29.256;2022-11-20T13:54:11;1024.7;;;1;66.8
74435;BME280;62867;52.038;29.256;2022-11-20T13:59:08;1024.6;;;1;67.3
74435;BME280;62867;52.038;29.256;2022-11-20T14:04:06;1024.6;;;0.9;66.2
74435;BME280;62867;52.038;29.256;2022-11-20T14:09:27;1024.7;;;0.8;67
74435;BME280;62867;52.038;29.256;2022-11-20T14:14:17;1024.7;;;0.8;67.5
74435;BME280;62867;52.038;29.256;2022-11-20T14:19:23;1024.7;;;0.8;67.3
74435;BME280;62867;52.038;29.256;2022-11-20T14:24:26;1024.7;;;0.7;67.5
74435;BME280;62867;52.038;29.256;2022-11-20T14:29:10;1024.6;;;0.8;67.8
74435;BME280;62867;52.038;29.256;2022-11-20T14:34:10;1024.6;;;0.8;67.4
74435;BME280;62867;52.038;29.256;2022-11-20T14:39:07;1024.5;;;0.8;67.4
74435;BME280;62867;52.038;29.256;2022-11-20T14:44:08;1024.6;;;0.7;67.4
74435;BME280;62867;52.038;29.256;2022-11-20T14:49:08;1024.5;;;0.7;67.6
74435;BME280;62867;52.038;29.256;2022-11-20T14:54:09;1024.4;;;0.6;67.9
74435;BME280;62867;52.038;29.256;2022-11-20T14:59:22;1024.4;;;0.7;68.9
74435;BME280;62867;52.038;29.256;2022-11-20T15:04:26;1024.4;;;0.7;68.2
74435;BME280;62867;52.038;29.256;2022-11-20T15:09:12;1024.2;;;0.6;68.1
74435;BME280;62867;52.038;29.256;2022-11-20T15:14:08;1024.1;;;0.7;68.4
74435;BME280;62867;52.038;29.256;2022-11-20T15:19:46;1024;;;0.7;68
74435;BME280;62867;52.038;29.256;2022-11-20T15:24:07;1024;;;0.7;68.3
74435;BME280;62867;52.038;29.256;2022-11-20T15:29:30;1024;;;0.7;68.2
74435;BME280;62867;52.038;29.256;2022-11-20T15:34:08;1023.9;;;0.7;67.9
74435;BME280;62867;52.038;29.256;2022-11-20T15:39:34;1024;;;0.7;68.1
74435;BME280;62867;52.038;29.256;2022-11-20T15:44:06;1024;;;0.7;68
74435;BME280;62867;52.038;29.256;2022-11-20T15:49:38;1023.9;;;0.7;68.1
74435;BME280;62867;52.038;29.256;2022-11-20T15:54:19;1024;;;0.7;67.9
74435;BME280;62867;52.038;29.256;2022-11-20T15:59:06;1024;;;0.6;68.1
74435;BME280;62867;52.038;29.256;2022-11-20T16:04:24;1023.9;;;0.6;68.7
74435;BME280;62867;52.038;29.256;2022-11-20T16:09:06;1023.9;;;0.6;68.3
74435;BME280;62867;52.038;29.256;2022-11-20T16:14:16;1024;;;0.7;68.5
74435;BME280;62867;52.038;29.256;2022-11-20T16:19:28;1024;;;0.7;68.3
74435;BME280;62867;52.038;29.256;2022-11-20T16:24:07;1024;;;0.7;68.1
74435;BME280;62867;52.038;29.256;2022-11-20T16:29:09;1023.9;;;0.7;68.4
74435;BME280;62867;52.038;29.256;2022-11-20T16:34:06;1023.8;;;0.8;68.3
74435;BME280;62867;52.038;29.256;2022-11-20T16:39:26;1023.7;;;0.7;68.3
74435;BME280;62867;52.038;29.256;2022-11-20T16:44:07;1023.6;;;0.8;68.2
74435;BME280;62867;52.038;29.256;2022-11-20T16:49:10;1023.4;;;0.7;68.4
74435;BME280;62867;52.038;29.256;2022-11-20T16:54:14;1023.4;;;0.7;68.4
74435;BME280;62867;52.038;29.256;2022-11-20T16:59:14;1023.7;;;0.7;68.1
74435;BME280;62867;52.038;29.256;2022-11-20T17:04:48;1023.6;;;0.7;68.2
74435;BME280;62867;52.038;29.256;2022-11-20T17:09:15;1023.5;;;0.7;68.5
74435;BME280;62867;52.038;29.256;2022-11-20T17:14:06;1023.2;;;0.7;68.8
74435;BME280;62867;52.038;29.256;2022-11-20T17:19:07;1023.1;;;0.7;68.8
74435;BME280;62867;52.038;29.256;2022-11-20T17:24:14;1023.1;;;0.7;68.7
74435;BME280;62867;52.038;29.256;2022-11-20T17:29:26;1023;;;0.8;68.8
74435;BME280;62867;52.038;29.256;2022-11-20T17:34:16;1023;;;0.8;68.7
74435;BME280;62867;52.038;29.256;2022-11-20T17:39:06;1023.2;;;0.8;68.6
74435;BME280;62867;52.038;29.256;2022-11-20T17:44:14;1023.3;;;0.7;69.1
74435;BME280;62867;52.038;29.256;2022-11-20T17:49:06;1023.2;;;0.7;68.6
74435;BME280;62867;52.038;29.256;2022-11-20T17:54:26;1023.2;;;0.7;68.6
74435;BME280;62867;52.038;29.256;2022-11-20T17:59:07;1023;;;0.7;68.5
74435;BME280;62867;52.038;29.256;2022-11-20T18:04:16;1023;;;0.7;68.4
74435;BME280;62867;52.038;29.256;2022-11-20T18:09:26;1022.9;;;0.7;68.4
74435;BME280;62867;52.038;29.256;2022-11-20T18:14:16;1023;;;0.7;68.1
74435;BME280;62867;52.038;29.256;2022-11-20T18:19:50;1022.9;;;0.6;68.7
74435;BME280;62867;52.038;29.256;2022-11-20T18:24:14;1022.9;;;0.6;68.9
74435;BME280;62867;52.038;29.256;2022-11-20T18:29:16;1022.9;;;0.7;68.6
74435;BME280;62867;52.038;29.256;2022-11-20T18:34:15;1022.9;;;0.7;68.4
74435;BME280;62867;52.038;29.256;2022-11-20T18:39:15;1022.8;;;0.7;68.2
74435;BME280;62867;52.038;29.256;2022-11-20T18:44:10;1022.6;;;0.6;68
74435;BME280;62867;52.038;29.256;2022-11-20T18:49:07;1022.5;;;0.5;67.8
74435;BME280;62867;52.038;29.256;2022-11-20T18:54:07;1022.4;;;0.5;68.4
74435;BME280;62867;52.038;29.256;2022-11-20T18:59:07;1022.4;;;0.5;68.3
74435;BME280;62867;52.038;29.256;2022-11-20T19:04:07;1022.5;;;0.5;68
74435;BME280;62867;52.038;29.256;2022-11-20T19:09:16;1022.4;;;0.4;68.3
74435;BME280;62867;52.038;29.256;2022-11-20T19:14:16;1022.3;;;0.4;68.8
74435;BME280;62867;52.038;29.256;2022-11-20T19:19:16;1022.2;;;0.4;68.7
74435;BME280;62867;52.038;29.256;2022-11-20T19:24:07;1022.3;;;0.4;68.7
74435;BME280;62867;52.038;29.256;2022-11-20T19:29:06;1022.3;;;0.4;68.9
74435;BME280;62867;52.038;29.256;2022-11-20T19:34:14;1022.1;;;0.4;69
74435;BME280;62867;52.038;29.256;2022-11-20T19:39:07;1022;;;0.4;69
74435;BME280;62867;52.038;29.256;2022-11-20T19:44:07;1021.9;;;0.4;69.3
74435;BME280;62867;52.038;29.256;2022-11-20T19:49:07;1021.9;;;0.5;69.4
74435;BME280;62867;52.038;29.256;2022-11-20T19:54:26;1021.8;;;0.5;69.2
74435;BME280;62867;52.038;29.256;2022-11-20T19:59:07;1021.7;;;0.5;68.5
74435;BME280;62867;52.038;29.256;2022-11-20T20:04:16;1021.6;;;0.5;68.7
74435;BME280;62867;52.038;29.256;2022-11-20T20:09:15;1021.6;;;0.5;68.8
74435;BME280;62867;52.038;29.256;2022-11-20T20:14:24;1021.7;;;0.5;69.1
74435;BME280;62867;52.038;29.256;2022-11-20T20:19:38;1021.9;;;0.5;69.1
74435;BME280;62867;52.038;29.256;2022-11-20T20:24:07;1022;;;0.5;69
74435;BME280;62867;52.038;29.256;2022-11-20T20:29:07;1021.8;;;0.5;69
74435;BME280;62867;52.038;29.256;2022-11-20T20:34:16;1021.8;;;0.5;69
74435;BME280;62867;52.038;29.256;2022-11-20T20:39:14;1022;;;0.5;69.1
74435;BME280;62867;52.038;29.256;2022-11-20T20:44:06;1022.1;;;0.5;69.2
74435;BME280;62867;52.038;29.256;2022-11-20T20:49:27;1022;;;0.5;69
74435;BME280;62867;52.038;29.256;2022-11-20T20:54:06;1022.1;;;0.5;68.8
74435;BME280;62867;52.038;29.256;2022-11-20T20:59:30;1022.1;;;0.5;69.1
74435;BME280;62867;52.038;29.256;2022-11-20T21:04:07;1022.1;;;0.6;69
74435;BME280;62867;52.038;29.256;2022-11-20T21:09:07;1022;;;0.6;69.4
74435;BME280;62867;52.038;29.256;2022-11-20T21:14:19;1021.8;;;0.6;69.3
74435;BME280;62867;52.038;29.256;2022-11-20T21:19:16;1021.8;;;0.7;68.9
74435;BME280;62867;52.038;29.256;2022-11-20T21:24:07;1021.7;;;0.7;68.9
74435;BME280;62867;52.038;29.256;2022-11-20T21:29:15;1021.7;;;0.7;68.9
74435;BME280;62867;52.038;29.256;2022-11-20T21:34:09;1021.6;;;0.6;69.1
74435;BME280;62867;52.038;29.256;2022-11-20T21:39:08;1021.7;;;0.6;69.4
74435;BME280;62867;52.038;29.256;2022-11-20T21:44:17;1021.7;;;0.7;69.3
74435;BME280;62867;52.038;29.256;2022-11-20T21:49:07;1021.7;;;0.6;69.5
74435;BME280;62867;52.038;29.256;2022-11-20T21:54:08;1021.7;;;0.6;69.4
74435;BME280;62867;52.038;29.256;2022-11-20T21:59:03;1021.7;;;0.6;69.3
74435;BME280;62867;52.038;29.256;2022-11-20T22:04:03;1021.6;;;0.6;69
74435;BME280;62867;52.038;29.256;2022-11-20T22:09:02;1021.6;;;0.6;69.2
74435;BME280;62867;52.038;29.256;2022-11-20T22:14:03;1021.6;;;0.6;68.9
74435;BME280;62867;52.038;29.256;2022-11-20T22:19:11;1021.5;;;0.6;69.3
74435;BME280;62867;52.038;29.256;2022-11-20T22:24:03;1021.5;;;0.7;68.9
74435;BME280;62867;52.038;29.256;2022-11-20T22:29:13;1021.3;;;0.6;68.9
74435;BME280;62867;52.038;29.256;2022-11-20T22:34:03;1021.3;;;0.5;69.2
74435;BME280;62867;52.038;29.256;2022-11-20T22:39:13;1021.3;;;0.5;69.1
74435;BME280;62867;52.038;29.256;2022-11-20T22:44:11;1021.2;;;0.4;69.1
74435;BME280;62867;52.038;29.256;2022-11-20T22:49:11;1021.2;;;0.4;69.3
74435;BME280;62867;52.038;29.256;2022-11-20T22:54:03;1021.1;;;0.4;69.5
74435;BME280;62867;52.038;29.256;2022-11-20T22:59:03;1021;;;0.4;69.2
74435;BME280;62867;52.038;29.256;2022-11-20T23:04:13;1020.9;;;0.4;69.2
74435;BME280;62867;52.038;29.256;2022-11-20T23:09:11;1020.8;;;0.4;69.1
74435;BME280;62867;52.038;29.256;2022-11-20T23:14:11;1020.8;;;0.4;68.9
74435;BME280;62867;52.038;29.256;2022-11-20T23:19:03;1020.9;;;0.4;69.1
74435;BME280;62867;52.038;29.256;2022-11-20T23:24:03;1020.8;;;0.4;69.5
74435;BME280;62867;52.038;29.256;2022-11-20T23:29:11;1020.8;;;0.4;69.7
74435;BME280;62867;52.038;29.256;2022-11-20T23:34:03;1020.7;;;0.4;69.3
74435;BME280;62867;52.038;29.256;2022-11-20T23:39:03;1020.7;;;0.4;69.1
74435;BME280;62867;52.038;29.256;2022-11-20T23:44:13;1020.7;;;0.4;69.2
74435;BME280;62867;52.038;29.256;2022-11-20T23:49:13;1020.7;;;0.4;69
74435;BME280;62867;52.038;29.256;2022-11-20T23:54:03;1020.7;;;0.4;69.5
74435;BME280;62867;52.038;29.256;2022-11-20T23:59:13;1020.6;;;0.4;69.6
